sensor_id;sensor_type;location;lat;lon;timestamp;P1;durP1;ratioP1;P2;durP2;ratioP2
42904;SDS011;28550;51.228;4.528;2023-11-18T00:19:27;49.05;;;28.90;;
42904;SDS011;28550;51.228;4.528;2023-11-18T00:26:04;48.17;;;26.70;;
42904;SDS011;28550;51.228;4.528;2023-11-18T00:28:36;46.88;;;27.95;;
42904;SDS011;28550;51.228;4.528;2023-11-18T00:33:50;45.77;;;26.67;;
42904;SDS011;28550;51.228;4.528;2023-11-18T00:36:20;43.15;;;26.40;;
42904;SDS011;28550;51.228;4.528;2023-11-18T00:38:46;46.95;;;27.27;;
42904;SDS011;28550;51.228;4.528;2023-11-18T00:41:12;40.38;;;26.48;;
42904;SDS011;28550;51.228;4.528;2023-11-18T00:43:52;46.60;;;24.98;;
42904;SDS011;28550;51.228;4.528;2023-11-18T00:46:18;39.33;;;24.42;;
42904;SDS011;28550;51.228;4.528;2023-11-18T00:48:44;42.30;;;24.25;;
42904;SDS011;28550;51.228;4.528;2023-11-18T00:51:09;42.30;;;25.13;;
42904;SDS011;28550;51.228;4.528;2023-11-18T00:53:41;45.03;;;24.80;;
42904;SDS011;28550;51.228;4.528;2023-11-18T00:56:19;37.88;;;23.52;;
42904;SDS011;28550;51.228;4.528;2023-11-18T00:58:48;40.13;;;23.55;;
42904;SDS011;28550;51.228;4.528;2023-11-18T01:01:14;35.95;;;23.52;;
42904;SDS011;28550;51.228;4.528;2023-11-18T01:03:46;37.47;;;22.65;;
42904;SDS011;28550;51.228;4.528;2023-11-18T01:06:13;35.70;;;23.27;;
42904;SDS011;28550;51.228;4.528;2023-11-18T01:08:45;44.03;;;22.15;;
42904;SDS011;28550;51.228;4.528;2023-11-18T01:11:16;39.78;;;22.77;;
42904;SDS011;28550;51.228;4.528;2023-11-18T01:13:45;34.30;;;23.08;;
42904;SDS011;28550;51.228;4.528;2023-11-18T01:16:12;40.67;;;21.92;;
42904;SDS011;28550;51.228;4.528;2023-11-18T01:18:40;42.00;;;21.98;;
42904;SDS011;28550;51.228;4.528;2023-11-18T01:21:12;36.55;;;21.63;;
42904;SDS011;28550;51.228;4.528;2023-11-18T01:23:38;37.58;;;22.52;;
42904;SDS011;28550;51.228;4.528;2023-11-18T01:26:10;33.67;;;22.30;;
42904;SDS011;28550;51.228;4.528;2023-11-18T01:28:37;35.13;;;21.40;;
42904;SDS011;28550;51.228;4.528;2023-11-18T01:31:07;37.53;;;21.73;;
42904;SDS011;28550;51.228;4.528;2023-11-18T01:33:39;33.05;;;20.48;;
42904;SDS011;28550;51.228;4.528;2023-11-18T01:36:06;33.75;;;20.15;;
42904;SDS011;28550;51.228;4.528;2023-11-18T01:38:38;37.77;;;20.50;;
42904;SDS011;28550;51.228;4.528;2023-11-18T01:41:05;34.10;;;21.45;;
42904;SDS011;28550;51.228;4.528;2023-11-18T01:43:32;34.95;;;19.77;;
42904;SDS011;28550;51.228;4.528;2023-11-18T01:46:03;31.83;;;19.92;;
42904;SDS011;28550;51.228;4.528;2023-11-18T01:48:32;35.70;;;20.80;;
42904;SDS011;28550;51.228;4.528;2023-11-18T01:51:01;34.17;;;19.70;;
42904;SDS011;28550;51.228;4.528;2023-11-18T01:53:48;36.60;;;21.15;;
42904;SDS011;28550;51.228;4.528;2023-11-18T01:56:15;36.65;;;20.58;;
42904;SDS011;28550;51.228;4.528;2023-11-18T01:58:46;31.02;;;19.75;;
42904;SDS011;28550;51.228;4.528;2023-11-18T02:01:12;32.35;;;19.45;;
42904;SDS011;28550;51.228;4.528;2023-11-18T02:03:43;32.92;;;19.35;;
42904;SDS011;28550;51.228;4.528;2023-11-18T02:06:18;31.25;;;20.20;;
42904;SDS011;28550;51.228;4.528;2023-11-18T02:08:51;32.17;;;20.92;;
42904;SDS011;28550;51.228;4.528;2023-11-18T02:11:28;32.33;;;19.13;;
42904;SDS011;28550;51.228;4.528;2023-11-18T02:16:38;31.33;;;18.90;;
42904;SDS011;28550;51.228;4.528;2023-11-18T02:19:09;34.95;;;20.92;;
42904;SDS011;28550;51.228;4.528;2023-11-18T02:21:48;38.05;;;19.58;;
42904;SDS011;28550;51.228;4.528;2023-11-18T02:24:24;36.33;;;19.35;;
42904;SDS011;28550;51.228;4.528;2023-11-18T02:26:59;33.38;;;19.15;;
42904;SDS011;28550;51.228;4.528;2023-11-18T02:29:28;37.75;;;20.63;;
42904;SDS011;28550;51.228;4.528;2023-11-18T02:32:03;35.13;;;19.02;;
42904;SDS011;28550;51.228;4.528;2023-11-18T02:35:13;31.65;;;20.13;;
42904;SDS011;28550;51.228;4.528;2023-11-18T02:37:53;32.13;;;19.38;;
42904;SDS011;28550;51.228;4.528;2023-11-18T02:40:39;32.33;;;20.13;;
42904;SDS011;28550;51.228;4.528;2023-11-18T02:43:09;33.65;;;18.98;;
42904;SDS011;28550;51.228;4.528;2023-11-18T02:45:42;35.50;;;20.65;;
42904;SDS011;28550;51.228;4.528;2023-11-18T02:48:10;36.70;;;20.08;;
42904;SDS011;28550;51.228;4.528;2023-11-18T02:50:40;33.80;;;19.75;;
42904;SDS011;28550;51.228;4.528;2023-11-18T02:53:08;36.20;;;18.83;;
42904;SDS011;28550;51.228;4.528;2023-11-18T02:55:36;34.35;;;19.85;;
42904;SDS011;28550;51.228;4.528;2023-11-18T02:58:04;39.10;;;18.83;;
42904;SDS011;28550;51.228;4.528;2023-11-18T03:00:38;40.08;;;21.33;;
42904;SDS011;28550;51.228;4.528;2023-11-18T03:03:06;42.22;;;21.23;;
42904;SDS011;28550;51.228;4.528;2023-11-18T03:05:40;35.55;;;19.20;;
42904;SDS011;28550;51.228;4.528;2023-11-18T03:08:11;36.22;;;20.35;;
42904;SDS011;28550;51.228;4.528;2023-11-18T03:10:40;43.10;;;21.15;;
42904;SDS011;28550;51.228;4.528;2023-11-18T03:16:44;34.33;;;21.02;;
42904;SDS011;28550;51.228;4.528;2023-11-18T03:19:23;38.78;;;20.33;;
42904;SDS011;28550;51.228;4.528;2023-11-18T03:21:59;39.58;;;21.50;;
42904;SDS011;28550;51.228;4.528;2023-11-18T03:24:39;36.78;;;21.98;;
42904;SDS011;28550;51.228;4.528;2023-11-18T03:27:17;43.08;;;21.92;;
42904;SDS011;28550;51.228;4.528;2023-11-18T03:29:48;36.75;;;20.33;;
42904;SDS011;28550;51.228;4.528;2023-11-18T03:32:13;40.80;;;21.17;;
42904;SDS011;28550;51.228;4.528;2023-11-18T03:34:40;40.28;;;20.77;;
42904;SDS011;28550;51.228;4.528;2023-11-18T03:37:26;37.10;;;20.45;;
42904;SDS011;28550;51.228;4.528;2023-11-18T03:39:58;35.33;;;18.48;;
42904;SDS011;28550;51.228;4.528;2023-11-18T03:42:29;38.42;;;21.35;;
42904;SDS011;28550;51.228;4.528;2023-11-18T03:44:56;37.40;;;20.10;;
42904;SDS011;28550;51.228;4.528;2023-11-18T03:47:22;34.40;;;19.85;;
42904;SDS011;28550;51.228;4.528;2023-11-18T03:49:49;35.05;;;19.58;;
42904;SDS011;28550;51.228;4.528;2023-11-18T03:52:28;37.17;;;21.02;;
42904;SDS011;28550;51.228;4.528;2023-11-18T03:55:04;32.90;;;17.73;;
42904;SDS011;28550;51.228;4.528;2023-11-18T03:57:30;36.92;;;18.80;;
42904;SDS011;28550;51.228;4.528;2023-11-18T04:00:03;34.88;;;20.17;;
42904;SDS011;28550;51.228;4.528;2023-11-18T04:02:36;32.40;;;18.88;;
42904;SDS011;28550;51.228;4.528;2023-11-18T04:05:12;31.45;;;17.92;;
42904;SDS011;28550;51.228;4.528;2023-11-18T04:07:41;32.88;;;18.83;;
42904;SDS011;28550;51.228;4.528;2023-11-18T04:10:11;29.15;;;18.27;;
42904;SDS011;28550;51.228;4.528;2023-11-18T04:12:43;31.67;;;18.20;;
42904;SDS011;28550;51.228;4.528;2023-11-18T04:15:29;31.58;;;16.95;;
42904;SDS011;28550;51.228;4.528;2023-11-18T04:17:57;32.53;;;17.55;;
42904;SDS011;28550;51.228;4.528;2023-11-18T04:20:23;32.05;;;17.23;;
42904;SDS011;28550;51.228;4.528;2023-11-18T04:22:49;32.95;;;18.63;;
42904;SDS011;28550;51.228;4.528;2023-11-18T04:25:17;27.58;;;17.23;;
42904;SDS011;28550;51.228;4.528;2023-11-18T04:27:43;30.30;;;15.75;;
42904;SDS011;28550;51.228;4.528;2023-11-18T04:30:11;35.53;;;16.75;;
42904;SDS011;28550;51.228;4.528;2023-11-18T04:32:38;30.80;;;17.00;;
42904;SDS011;28550;51.228;4.528;2023-11-18T04:35:07;27.33;;;15.68;;
42904;SDS011;28550;51.228;4.528;2023-11-18T04:37:35;26.05;;;13.45;;
42904;SDS011;28550;51.228;4.528;2023-11-18T04:40:25;27.67;;;14.05;;
42904;SDS011;28550;51.228;4.528;2023-11-18T04:42:53;28.35;;;14.32;;
42904;SDS011;28550;51.228;4.528;2023-11-18T04:45:22;25.63;;;15.50;;
42904;SDS011;28550;51.228;4.528;2023-11-18T04:47:48;28.10;;;17.92;;
42904;SDS011;28550;51.228;4.528;2023-11-18T04:50:15;29.00;;;15.27;;
42904;SDS011;28550;51.228;4.528;2023-11-18T04:52:50;26.55;;;14.77;;
42904;SDS011;28550;51.228;4.528;2023-11-18T04:55:16;25.77;;;15.65;;
42904;SDS011;28550;51.228;4.528;2023-11-18T04:57:43;26.10;;;15.18;;
42904;SDS011;28550;51.228;4.528;2023-11-18T05:00:22;36.25;;;16.33;;
42904;SDS011;28550;51.228;4.528;2023-11-18T05:03:01;28.27;;;15.00;;
42904;SDS011;28550;51.228;4.528;2023-11-18T05:05:29;24.17;;;13.50;;
42904;SDS011;28550;51.228;4.528;2023-11-18T05:07:58;30.50;;;15.27;;
42904;SDS011;28550;51.228;4.528;2023-11-18T05:10:25;29.35;;;14.85;;
42904;SDS011;28550;51.228;4.528;2023-11-18T05:12:56;27.63;;;14.30;;
42904;SDS011;28550;51.228;4.528;2023-11-18T05:15:23;24.20;;;14.30;;
42904;SDS011;28550;51.228;4.528;2023-11-18T05:17:51;27.00;;;14.07;;
42904;SDS011;28550;51.228;4.528;2023-11-18T05:20:18;34.03;;;14.30;;
42904;SDS011;28550;51.228;4.528;2023-11-18T05:22:48;24.17;;;13.35;;
42904;SDS011;28550;51.228;4.528;2023-11-18T05:25:13;23.88;;;13.07;;
42904;SDS011;28550;51.228;4.528;2023-11-18T05:27:42;27.17;;;14.30;;
42904;SDS011;28550;51.228;4.528;2023-11-18T05:30:12;25.33;;;12.48;;
42904;SDS011;28550;51.228;4.528;2023-11-18T05:32:43;23.38;;;12.85;;
42904;SDS011;28550;51.228;4.528;2023-11-18T05:35:10;23.02;;;12.80;;
42904;SDS011;28550;51.228;4.528;2023-11-18T05:37:40;17.73;;;11.25;;
42904;SDS011;28550;51.228;4.528;2023-11-18T05:40:07;27.05;;;13.25;;
42904;SDS011;28550;51.228;4.528;2023-11-18T05:42:40;19.63;;;10.77;;
42904;SDS011;28550;51.228;4.528;2023-11-18T05:45:08;23.60;;;13.75;;
42904;SDS011;28550;51.228;4.528;2023-11-18T05:47:43;19.98;;;11.02;;
42904;SDS011;28550;51.228;4.528;2023-11-18T05:50:12;18.00;;;11.23;;
42904;SDS011;28550;51.228;4.528;2023-11-18T05:52:40;17.75;;;10.10;;
42904;SDS011;28550;51.228;4.528;2023-11-18T05:55:05;22.67;;;11.00;;
42904;SDS011;28550;51.228;4.528;2023-11-18T05:57:35;21.35;;;11.20;;
42904;SDS011;28550;51.228;4.528;2023-11-18T06:00:04;18.48;;;10.15;;
42904;SDS011;28550;51.228;4.528;2023-11-18T06:02:35;22.83;;;12.20;;
42904;SDS011;28550;51.228;4.528;2023-11-18T06:05:05;25.65;;;10.82;;
42904;SDS011;28550;51.228;4.528;2023-11-18T06:07:34;15.85;;;9.60;;
42904;SDS011;28550;51.228;4.528;2023-11-18T06:10:00;20.48;;;10.23;;
42904;SDS011;28550;51.228;4.528;2023-11-18T06:12:33;19.27;;;10.77;;
42904;SDS011;28550;51.228;4.528;2023-11-18T06:15:03;17.80;;;9.13;;
42904;SDS011;28550;51.228;4.528;2023-11-18T06:17:30;17.90;;;8.65;;
42904;SDS011;28550;51.228;4.528;2023-11-18T06:20:02;20.50;;;10.05;;
42904;SDS011;28550;51.228;4.528;2023-11-18T06:22:31;25.98;;;9.55;;
42904;SDS011;28550;51.228;4.528;2023-11-18T06:25:02;14.05;;;8.50;;
42904;SDS011;28550;51.228;4.528;2023-11-18T06:30:11;16.80;;;8.13;;
42904;SDS011;28550;51.228;4.528;2023-11-18T06:32:38;15.80;;;9.30;;
42904;SDS011;28550;51.228;4.528;2023-11-18T06:35:06;12.80;;;7.63;;
42904;SDS011;28550;51.228;4.528;2023-11-18T06:37:33;17.23;;;8.70;;
42904;SDS011;28550;51.228;4.528;2023-11-18T06:40:03;18.60;;;8.38;;
42904;SDS011;28550;51.228;4.528;2023-11-18T06:42:41;14.23;;;8.00;;
42904;SDS011;28550;51.228;4.528;2023-11-18T06:45:29;17.33;;;7.07;;
42904;SDS011;28550;51.228;4.528;2023-11-18T06:47:57;15.88;;;7.35;;
42904;SDS011;28550;51.228;4.528;2023-11-18T06:50:24;17.75;;;7.05;;
42904;SDS011;28550;51.228;4.528;2023-11-18T06:52:51;17.98;;;8.38;;
42904;SDS011;28550;51.228;4.528;2023-11-18T06:55:18;16.70;;;7.15;;
42904;SDS011;28550;51.228;4.528;2023-11-18T06:57:51;16.05;;;8.13;;
42904;SDS011;28550;51.228;4.528;2023-11-18T07:00:27;21.67;;;7.50;;
42904;SDS011;28550;51.228;4.528;2023-11-18T07:03:04;16.98;;;6.97;;
42904;SDS011;28550;51.228;4.528;2023-11-18T07:05:32;15.65;;;6.90;;
42904;SDS011;28550;51.228;4.528;2023-11-18T07:10:36;12.32;;;6.57;;
42904;SDS011;28550;51.228;4.528;2023-11-18T07:13:06;12.20;;;6.43;;
42904;SDS011;28550;51.228;4.528;2023-11-18T07:18:33;12.20;;;5.93;;
42904;SDS011;28550;51.228;4.528;2023-11-18T07:21:05;15.82;;;6.60;;
42904;SDS011;28550;51.228;4.528;2023-11-18T07:23:33;18.50;;;5.75;;
42904;SDS011;28550;51.228;4.528;2023-11-18T07:26:13;13.07;;;5.35;;
42904;SDS011;28550;51.228;4.528;2023-11-18T07:31:16;13.13;;;5.50;;
42904;SDS011;28550;51.228;4.528;2023-11-18T07:36:47;10.68;;;5.00;;
42904;SDS011;28550;51.228;4.528;2023-11-18T07:39:13;15.60;;;4.93;;
42904;SDS011;28550;51.228;4.528;2023-11-18T07:44:24;12.95;;;4.85;;
42904;SDS011;28550;51.228;4.528;2023-11-18T07:46:51;10.30;;;4.68;;
42904;SDS011;28550;51.228;4.528;2023-11-18T07:49:30;8.65;;;4.25;;
42904;SDS011;28550;51.228;4.528;2023-11-18T07:51:57;8.88;;;3.80;;
42904;SDS011;28550;51.228;4.528;2023-11-18T07:54:29;9.52;;;4.68;;
42904;SDS011;28550;51.228;4.528;2023-11-18T08:00:15;12.70;;;5.60;;
42904;SDS011;28550;51.228;4.528;2023-11-18T08:03:13;10.38;;;4.82;;
42904;SDS011;28550;51.228;4.528;2023-11-18T08:05:48;14.80;;;5.10;;
42904;SDS011;28550;51.228;4.528;2023-11-18T08:08:22;15.25;;;6.78;;
42904;SDS011;28550;51.228;4.528;2023-11-18T08:10:58;10.45;;;4.70;;
42904;SDS011;28550;51.228;4.528;2023-11-18T08:13:39;11.02;;;5.20;;
42904;SDS011;28550;51.228;4.528;2023-11-18T08:16:31;9.10;;;3.80;;
42904;SDS011;28550;51.228;4.528;2023-11-18T08:19:20;16.02;;;5.47;;
42904;SDS011;28550;51.228;4.528;2023-11-18T08:21:48;12.20;;;4.80;;
42904;SDS011;28550;51.228;4.528;2023-11-18T08:24:14;9.30;;;4.20;;
42904;SDS011;28550;51.228;4.528;2023-11-18T08:27:03;14.27;;;7.07;;
42904;SDS011;28550;51.228;4.528;2023-11-18T08:29:41;9.85;;;5.03;;
42904;SDS011;28550;51.228;4.528;2023-11-18T08:32:11;10.20;;;4.43;;
42904;SDS011;28550;51.228;4.528;2023-11-18T08:34:43;9.93;;;4.25;;
42904;SDS011;28550;51.228;4.528;2023-11-18T08:39:52;12.65;;;4.38;;
42904;SDS011;28550;51.228;4.528;2023-11-18T08:42:24;12.38;;;5.28;;
42904;SDS011;28550;51.228;4.528;2023-11-18T08:45:01;15.50;;;5.32;;
42904;SDS011;28550;51.228;4.528;2023-11-18T08:47:44;11.77;;;5.05;;
42904;SDS011;28550;51.228;4.528;2023-11-18T08:50:18;8.15;;;4.72;;
42904;SDS011;28550;51.228;4.528;2023-11-18T08:52:44;14.27;;;5.05;;
42904;SDS011;28550;51.228;4.528;2023-11-18T09:01:04;12.68;;;4.28;;
42904;SDS011;28550;51.228;4.528;2023-11-18T09:03:38;13.18;;;4.70;;
42904;SDS011;28550;51.228;4.528;2023-11-18T09:06:19;13.13;;;5.47;;
42904;SDS011;28550;51.228;4.528;2023-11-18T09:09:06;7.10;;;4.57;;
42904;SDS011;28550;51.228;4.528;2023-11-18T09:11:55;13.43;;;4.97;;
42904;SDS011;28550;51.228;4.528;2023-11-18T09:18:12;10.23;;;5.53;;
42904;SDS011;28550;51.228;4.528;2023-11-18T09:20:46;10.73;;;4.45;;
42904;SDS011;28550;51.228;4.528;2023-11-18T09:23:15;13.50;;;5.53;;
42904;SDS011;28550;51.228;4.528;2023-11-18T09:26:05;12.10;;;5.47;;
42904;SDS011;28550;51.228;4.528;2023-11-18T09:28:33;10.23;;;5.13;;
42904;SDS011;28550;51.228;4.528;2023-11-18T09:31:00;12.90;;;5.72;;
42904;SDS011;28550;51.228;4.528;2023-11-18T09:36:57;8.52;;;5.22;;
42904;SDS011;28550;51.228;4.528;2023-11-18T09:39:24;11.38;;;5.43;;
42904;SDS011;28550;51.228;4.528;2023-11-18T09:42:17;8.77;;;5.18;;
42904;SDS011;28550;51.228;4.528;2023-11-18T09:46:17;24.33;;;7.30;;
42904;SDS011;28550;51.228;4.528;2023-11-18T09:49:26;10.93;;;5.75;;
42904;SDS011;28550;51.228;4.528;2023-11-18T09:52:18;18.00;;;6.28;;
42904;SDS011;28550;51.228;4.528;2023-11-18T09:55:02;7.00;;;5.13;;
42904;SDS011;28550;51.228;4.528;2023-11-18T09:57:55;9.23;;;5.50;;
42904;SDS011;28550;51.228;4.528;2023-11-18T10:00:51;11.90;;;5.20;;
42904;SDS011;28550;51.228;4.528;2023-11-18T10:03:46;11.65;;;5.20;;
42904;SDS011;28550;51.228;4.528;2023-11-18T10:09:25;13.80;;;5.07;;
42904;SDS011;28550;51.228;4.528;2023-11-18T11:51:46;11.70;;;5.47;;
42904;SDS011;28550;51.228;4.528;2023-11-18T11:55:00;12.20;;;6.88;;
42904;SDS011;28550;51.228;4.528;2023-11-18T12:01:39;14.40;;;5.38;;
42904;SDS011;28550;51.228;4.528;2023-11-18T12:05:01;9.57;;;5.80;;
42904;SDS011;28550;51.228;4.528;2023-11-18T12:32:58;6.60;;;4.03;;
42904;SDS011;28550;51.228;4.528;2023-11-18T12:43:11;4.15;;;3.00;;
42904;SDS011;28550;51.228;4.528;2023-11-18T12:55:01;3.92;;;2.67;;
42904;SDS011;28550;51.228;4.528;2023-11-18T12:57:45;5.57;;;3.05;;
42904;SDS011;28550;51.228;4.528;2023-11-18T13:00:24;2.83;;;2.05;;
42904;SDS011;28550;51.228;4.528;2023-11-18T13:03:16;7.40;;;3.08;;
42904;SDS011;28550;51.228;4.528;2023-11-18T14:37:20;3.65;;;2.42;;
42904;SDS011;28550;51.228;4.528;2023-11-18T18:35:27;15.00;;;11.23;;
42904;SDS011;28550;51.228;4.528;2023-11-18T19:04:15;16.58;;;11.35;;
42904;SDS011;28550;51.228;4.528;2023-11-18T19:18:03;17.30;;;10.77;;
42904;SDS011;28550;51.228;4.528;2023-11-18T19:59:26;19.77;;;11.82;;
42904;SDS011;28550;51.228;4.528;2023-11-18T20:11:02;18.08;;;11.93;;
42904;SDS011;28550;51.228;4.528;2023-11-18T20:34:10;18.23;;;10.60;;
42904;SDS011;28550;51.228;4.528;2023-11-18T20:36:39;15.75;;;10.70;;
42904;SDS011;28550;51.228;4.528;2023-11-18T20:39:06;15.50;;;10.38;;
42904;SDS011;28550;51.228;4.528;2023-11-18T20:41:40;15.48;;;10.75;;
42904;SDS011;28550;51.228;4.528;2023-11-18T20:47:50;13.70;;;9.88;;
